createdAt,value
2023-04-18T00:01:04.209Z,99005.03
2023-04-18T00:03:32.267Z,98997.94
2023-04-18T00:06:00.777Z,98996.91
2023-04-18T00:08:29.009Z,98982.44
2023-04-18T00:10:58.941Z,98981.81
2023-04-18T00:13:28.546Z,98997.63
2023-04-18T00:15:56.804Z,98993.13
2023-04-18T00:18:26.772Z,98987.00
2023-04-18T00:20:54.869Z,98988.91
2023-04-18T00:23:23.481Z,98987.50
2023-04-18T00:25:51.388Z,98986.44
2023-04-18T00:28:20.696Z,98982.91
2023-04-18T00:30:48.964Z,98990.03
2023-04-18T00:33:16.992Z,98984.13
2023-04-18T00:35:44.864Z,98977.09
2023-04-18T00:38:12.792Z,98977.00
2023-04-18T00:40:41.323Z,98977.41
2023-04-18T00:43:10.348Z,98981.88
2023-04-18T00:45:39.952Z,98984.41
2023-04-18T00:48:08.506Z,98987.78
2023-04-18T00:50:38.141Z,98983.41
2023-04-18T00:53:06.248Z,98982.63
2023-04-18T00:55:35.188Z,98982.63
2023-04-18T00:58:03.800Z,98979.34
2023-04-18T01:00:31.735Z,98980.19
2023-04-18T01:03:01.836Z,98986.81
2023-04-18T01:05:29.986Z,98983.88
2023-04-18T01:08:01.120Z,98988.44
2023-04-18T01:10:30.272Z,98971.63
2023-04-18T01:13:17.907Z,98971.16
2023-04-18T01:15:48.059Z,98975.69
2023-04-18T01:18:18.622Z,98963.53
2023-04-18T01:20:48.387Z,98975.19
2023-04-18T01:23:16.967Z,98982.03
2023-04-18T01:25:46.920Z,98966.00
2023-04-18T01:28:15.829Z,98937.91
2023-04-18T01:30:43.724Z,98937.41
2023-04-18T01:33:11.719Z,98959.19
2023-04-18T01:35:39.659Z,98958.19
2023-04-18T01:38:07.611Z,98952.06
2023-04-18T01:40:35.484Z,98952.47
2023-04-18T01:43:04.845Z,98958.94
2023-04-18T01:45:32.836Z,98953.28
2023-04-18T01:48:00.843Z,98956.63
2023-04-18T01:50:28.755Z,98945.81
2023-04-18T01:52:56.720Z,98933.06
2023-04-18T01:55:24.578Z,98945.50
2023-04-18T01:57:53.038Z,98943.16
2023-04-18T02:00:23.046Z,98939.09
2023-04-18T02:02:51.553Z,98947.84
2023-04-18T02:05:19.664Z,98947.91
2023-04-18T02:07:49.271Z,98942.59
2023-04-18T02:10:17.154Z,98949.09
2023-04-18T02:12:45.078Z,98942.69
2023-04-18T02:15:13.257Z,98946.63
2023-04-18T02:17:42.682Z,98937.50
2023-04-18T02:20:11.240Z,98941.13
2023-04-18T02:22:39.651Z,98953.94
2023-04-18T02:25:08.581Z,98944.31
2023-04-18T02:27:36.527Z,98951.19
2023-04-18T02:30:04.664Z,98942.16
2023-04-18T02:32:32.626Z,98947.41
2023-04-18T02:35:02.064Z,98954.25
2023-04-18T02:37:29.978Z,98948.63
2023-04-18T02:39:58.051Z,98934.78
2023-04-18T02:42:26.038Z,98942.81
2023-04-18T02:44:54.075Z,98946.69
2023-04-18T02:47:22.007Z,98935.16
2023-04-18T02:49:49.955Z,98949.47
2023-04-18T02:52:19.272Z,98950.41
2023-04-18T02:54:47.197Z,98951.31
2023-04-18T02:57:15.169Z,98951.00
2023-04-18T02:59:43.077Z,98952.88
2023-04-18T03:02:11.075Z,98953.34
2023-04-18T03:04:39.464Z,98956.66
2023-04-18T03:07:07.444Z,98946.75
2023-04-18T03:09:36.744Z,98947.44
2023-04-18T03:12:04.742Z,98953.09
2023-04-18T03:14:32.598Z,98938.84
2023-04-18T03:17:00.593Z,98944.19
2023-04-18T03:19:28.468Z,98941.25
2023-04-18T03:21:56.473Z,98951.31
2023-04-18T03:24:24.440Z,98954.47
2023-04-18T03:26:54.130Z,98946.88
2023-04-18T03:29:22.034Z,98949.75
2023-04-18T03:31:49.922Z,98948.38
2023-04-18T03:34:17.815Z,98947.78
2023-04-18T03:36:47.820Z,98952.09
2023-04-18T03:39:16.299Z,98949.75
2023-04-18T03:41:44.206Z,98953.19
2023-04-18T03:44:13.742Z,98954.19
2023-04-18T03:46:42.077Z,98944.34
2023-04-18T03:49:10.086Z,98939.88
2023-04-18T03:51:44.362Z,98948.13
2023-04-18T03:54:12.443Z,98944.66
2023-04-18T03:56:41.276Z,98947.53
2023-04-18T03:59:09.245Z,98937.00
2023-04-18T04:01:38.890Z,98941.25
2023-04-18T04:04:07.042Z,98945.91
2023-04-18T04:06:35.006Z,98947.78
2023-04-18T04:09:02.962Z,98942.03
2023-04-18T04:11:30.884Z,98942.16
2023-04-18T04:13:58.812Z,98933.22
2023-04-18T04:16:26.778Z,98946.09
2023-04-18T04:18:56.196Z,98941.91
2023-04-18T04:21:24.154Z,98950.13
2023-04-18T04:23:52.069Z,98949.50
2023-04-18T04:26:19.987Z,98956.66
2023-04-18T04:28:48.681Z,98955.16
2023-04-18T04:31:16.729Z,98953.44
2023-04-18T04:33:45.035Z,98952.28
2023-04-18T04:36:18.856Z,98951.69
2023-04-18T04:38:47.434Z,98956.34
2023-04-18T04:41:15.443Z,98961.03
2023-04-18T04:43:43.441Z,98957.81
2023-04-18T04:46:13.899Z,98956.97
2023-04-18T04:48:42.297Z,98946.91
2023-04-18T04:51:10.212Z,98950.59
2023-04-18T04:53:39.537Z,98955.09
2023-04-18T04:56:07.706Z,98954.66
2023-04-18T04:58:35.698Z,98956.59
2023-04-18T05:01:03.618Z,98956.66
2023-04-18T05:03:31.881Z,98956.66
2023-04-18T05:05:59.956Z,98961.28
2023-04-18T05:08:28.456Z,98963.50
2023-04-18T05:10:57.756Z,98967.84
2023-04-18T05:13:25.761Z,98968.94
2023-04-18T05:15:53.703Z,98960.25
2023-04-18T05:18:21.927Z,98956.78
2023-04-18T05:20:49.879Z,98968.38
2023-04-18T05:23:17.845Z,98958.56
2023-04-18T05:25:45.793Z,98959.72
2023-04-18T05:28:15.192Z,98966.50
2023-04-18T05:30:43.116Z,98958.09
2023-04-18T05:33:11.038Z,98969.22
2023-04-18T05:35:38.996Z,98971.69
2023-04-18T05:38:06.965Z,98971.44
2023-04-18T05:40:35.058Z,98973.16
2023-04-18T05:43:04.151Z,98972.63
2023-04-18T05:45:33.504Z,98980.81
2023-04-18T05:48:02.716Z,98981.16
2023-04-18T05:50:30.710Z,98977.31
2023-04-18T05:52:59.364Z,98980.53
2023-04-18T05:55:27.281Z,98974.66
2023-04-18T05:57:55.223Z,98965.13
2023-04-18T06:00:29.639Z,98970.09
2023-04-18T06:02:59.572Z,98980.13
2023-04-18T06:05:28.068Z,98990.34
2023-04-18T06:07:56.252Z,98965.84
2023-04-18T06:10:24.321Z,98993.38
2023-04-18T06:12:52.463Z,98989.72
2023-04-18T06:15:20.487Z,98994.16
2023-04-18T06:17:48.516Z,98994.69
2023-04-18T06:20:17.860Z,98974.25
2023-04-18T06:22:45.818Z,98994.34
2023-04-18T06:25:13.787Z,98994.34
2023-04-18T06:27:41.712Z,98988.03
2023-04-18T06:30:10.639Z,98998.16
2023-04-18T06:32:38.601Z,98973.56
2023-04-18T06:35:07.404Z,98997.81
2023-04-18T06:37:36.854Z,98996.22
2023-04-18T06:40:05.661Z,98988.59
2023-04-18T06:42:33.558Z,98978.38
2023-04-18T06:45:03.439Z,98988.28
2023-04-18T06:47:32.313Z,98983.75
2023-04-18T06:50:01.174Z,99002.59
2023-04-18T06:52:29.813Z,99001.06
2023-04-18T06:54:59.657Z,98988.03
2023-04-18T06:57:28.451Z,99001.38
2023-04-18T06:59:57.055Z,99006.38
2023-04-18T07:02:25.817Z,99000.34
2023-04-18T07:04:54.347Z,98999.72
2023-04-18T07:07:23.040Z,99005.19
2023-04-18T07:09:52.963Z,99004.81
2023-04-18T07:12:23.249Z,99005.56
2023-04-18T07:14:53.161Z,99010.84
2023-04-18T07:17:21.792Z,98994.09
2023-04-18T07:19:50.529Z,99006.22
2023-04-18T07:22:19.244Z,99005.53
2023-04-18T07:24:47.934Z,98998.00
2023-04-18T07:27:16.834Z,99001.03
2023-04-18T07:29:48.623Z,98995.84
2023-04-18T07:32:17.108Z,98983.53
2023-04-18T07:34:45.491Z,99007.69
2023-04-18T07:37:15.071Z,98995.66
2023-04-18T07:39:43.691Z,98998.22
2023-04-18T07:42:12.422Z,99000.75
2023-04-18T07:44:41.037Z,99003.97
2023-04-18T07:47:11.653Z,99007.19
2023-04-18T07:49:40.049Z,98998.31
2023-04-18T07:52:08.355Z,99001.91
2023-04-18T07:54:36.255Z,99007.22
2023-04-18T07:57:04.175Z,99000.97
2023-04-18T07:59:32.328Z,99002.75
2023-04-18T08:02:00.297Z,98996.44
2023-04-18T08:04:30.576Z,99003.03
2023-04-18T08:06:58.682Z,99000.88
2023-04-18T08:09:26.674Z,98999.38
2023-04-18T08:11:55.301Z,99007.13
2023-04-18T08:14:23.254Z,99006.06
2023-04-18T08:16:51.169Z,99008.50
2023-04-18T08:19:19.058Z,99008.13
2023-04-18T08:21:51.875Z,99004.91
2023-04-18T08:24:19.785Z,99007.56
2023-04-18T08:26:47.744Z,99011.50
2023-04-18T08:29:15.682Z,99006.75
2023-04-18T08:31:43.713Z,99004.03
2023-04-18T08:34:11.625Z,99010.56
2023-04-18T08:36:39.552Z,98994.13
2023-04-18T08:39:09.014Z,99010.63
2023-04-18T08:41:38.394Z,99006.38
2023-04-18T08:44:07.736Z,99015.16
2023-04-18T08:46:35.910Z,99010.16
2023-04-18T08:49:05.008Z,99009.41
2023-04-18T08:51:34.322Z,99003.34
2023-04-18T08:54:04.532Z,99020.28
2023-04-18T08:56:33.904Z,99016.59
2023-04-18T08:59:02.796Z,99012.22
2023-04-18T09:01:58.921Z,99015.00
2023-04-18T09:04:35.275Z,99019.88
2023-04-18T09:07:03.714Z,99011.28
2023-04-18T09:09:44.857Z,99011.94
2023-04-18T09:12:15.687Z,99016.34
2023-04-18T09:14:47.109Z,99020.63
2023-04-18T09:17:18.489Z,99015.66
2023-04-18T09:19:49.060Z,99006.50
2023-04-18T09:22:17.458Z,99016.91
2023-04-18T09:24:55.498Z,99015.88
2023-04-18T09:27:25.225Z,99013.41
2023-04-18T09:29:56.537Z,99012.16
2023-04-18T09:32:27.445Z,99017.50
2023-04-18T09:34:58.142Z,99018.84
2023-04-18T09:37:27.482Z,98994.75
2023-04-18T09:39:56.345Z,99011.88
2023-04-18T09:42:28.655Z,99011.16
2023-04-18T09:45:02.327Z,99019.66
2023-04-18T09:47:30.853Z,99026.56
2023-04-18T09:49:58.892Z,99018.50
2023-04-18T09:52:27.162Z,99022.00
2023-04-18T09:54:58.713Z,99029.13
2023-04-18T09:57:32.607Z,99020.69
2023-04-18T10:00:03.076Z,99029.97
2023-04-18T10:02:41.147Z,99030.97
2023-04-18T10:05:11.355Z,99027.72
2023-04-18T10:07:39.874Z,99017.47
2023-04-18T10:10:08.941Z,99018.03
2023-04-18T10:12:39.058Z,99024.97
2023-04-18T10:15:08.836Z,99027.09
2023-04-18T10:17:56.012Z,99022.19
2023-04-18T10:20:30.711Z,99029.66
2023-04-18T10:23:00.622Z,99030.50
2023-04-18T10:25:50.660Z,99024.13
2023-04-18T10:28:22.042Z,99021.25
2023-04-18T10:30:52.976Z,99013.84
2023-04-18T10:33:33.815Z,99024.75
2023-04-18T10:36:14.389Z,99023.81
2023-04-18T10:38:47.438Z,99018.09
2023-04-18T10:41:21.311Z,99022.78
2023-04-18T10:44:08.768Z,99018.31
2023-04-18T10:46:39.533Z,99017.25
2023-04-18T10:49:17.577Z,99010.56
2023-04-18T10:51:46.043Z,99019.91
2023-04-18T10:54:18.920Z,99018.88
2023-04-18T10:56:53.924Z,99011.44
2023-04-18T10:59:25.086Z,99009.94
2023-04-18T11:01:57.981Z,98999.44
2023-04-18T11:04:26.290Z,98994.97
2023-04-18T11:06:57.379Z,99011.84
2023-04-18T11:09:25.907Z,99006.53
2023-04-18T11:12:04.883Z,99001.63
2023-04-18T11:14:41.514Z,98996.50
2023-04-18T11:17:32.419Z,99010.25
2023-04-18T11:20:09.291Z,99003.63
2023-04-18T11:22:46.543Z,98993.47
2023-04-18T11:25:15.036Z,99000.16
2023-04-18T11:27:45.113Z,99002.16
2023-04-18T11:30:14.527Z,99007.78
2023-04-18T11:32:44.040Z,99004.28
2023-04-18T11:35:14.307Z,99000.56
2023-04-18T11:37:45.474Z,99002.97
2023-04-18T11:40:14.412Z,98991.19
2023-04-18T11:42:43.191Z,98996.59
2023-04-18T11:45:12.880Z,98986.63
2023-04-18T11:47:42.170Z,98993.81
2023-04-18T11:50:13.274Z,98994.00
2023-04-18T11:52:42.951Z,98977.09
2023-04-18T11:55:17.722Z,98991.16
2023-04-18T11:57:52.969Z,98978.91
2023-04-18T12:00:31.205Z,99000.69
2023-04-18T12:02:59.991Z,98998.97
2023-04-18T12:05:31.000Z,99003.13
2023-04-18T12:08:07.313Z,98991.97
2023-04-18T12:10:35.945Z,98995.66
2023-04-18T12:13:07.842Z,99005.59
2023-04-18T12:15:39.856Z,99004.31
2023-04-18T12:18:09.360Z,98980.56
2023-04-18T12:20:46.394Z,98998.09
2023-04-18T12:23:30.583Z,98988.16
2023-04-18T12:26:01.832Z,98994.00
2023-04-18T12:28:29.756Z,98987.91
2023-04-18T12:30:58.004Z,98997.88
2023-04-18T12:33:26.352Z,98965.47
2023-04-18T12:35:56.164Z,98983.66
2023-04-18T12:38:24.875Z,98963.28
2023-04-18T12:40:53.440Z,98989.25
2023-04-18T12:43:22.402Z,98986.53
2023-04-18T12:45:51.173Z,98987.56
2023-04-18T12:48:19.141Z,98970.19
2023-04-18T12:50:47.089Z,98979.38
2023-04-18T12:53:16.381Z,98987.56
2023-04-18T12:55:44.310Z,98990.03
2023-04-18T12:58:15.193Z,98992.91
2023-04-18T13:00:43.273Z,98984.72
2023-04-18T13:03:13.249Z,98981.53
2023-04-18T13:05:41.827Z,98988.81
2023-04-18T13:08:16.719Z,98988.31
2023-04-18T13:10:47.840Z,98991.47
2023-04-18T13:13:15.869Z,98948.25
2023-04-18T13:15:43.873Z,98961.69
2023-04-18T13:18:11.801Z,98980.06
2023-04-18T13:20:39.750Z,98985.97
2023-04-18T13:23:07.658Z,98978.97
2023-04-18T13:25:35.631Z,98969.59
2023-04-18T13:28:05.327Z,98978.56
2023-04-18T13:30:35.758Z,98985.84
2023-04-18T13:33:03.944Z,98979.81
2023-04-18T13:35:31.979Z,98976.69
2023-04-18T13:38:00.173Z,98974.03
2023-04-18T13:40:28.107Z,98964.66
2023-04-18T13:42:55.971Z,98972.09
2023-04-18T13:45:25.246Z,98982.22
2023-04-18T13:47:53.212Z,98971.50
2023-04-18T13:50:21.339Z,98974.38
2023-04-18T13:52:49.454Z,98976.88
2023-04-18T13:55:17.951Z,98974.28
2023-04-18T13:57:46.025Z,98966.06
2023-04-18T14:00:15.242Z,98975.56
2023-04-18T14:02:44.690Z,98969.13
2023-04-18T14:05:12.822Z,98970.75
2023-04-18T14:07:41.392Z,98965.34
2023-04-18T14:10:09.980Z,98978.56
2023-04-18T14:12:37.883Z,98963.59
2023-04-18T14:15:06.890Z,98970.94
2023-04-18T14:17:35.062Z,98963.69
2023-04-18T14:20:05.019Z,98945.03
2023-04-18T14:22:32.919Z,98965.34
2023-04-18T14:25:01.124Z,98959.94
2023-04-18T14:27:29.042Z,98960.38
2023-04-18T14:29:56.949Z,98963.03
2023-04-18T14:32:25.057Z,98961.06
2023-04-18T14:34:55.529Z,98951.50
2023-04-18T14:37:24.845Z,98956.03
2023-04-18T14:39:52.739Z,98951.22
2023-04-18T14:42:20.637Z,98967.84
2023-04-18T14:44:48.719Z,98951.09
2023-04-18T14:47:16.974Z,98959.53
2023-04-18T14:49:44.816Z,98960.53
2023-04-18T14:52:12.732Z,98963.75
2023-04-18T14:54:42.138Z,98963.56
2023-04-18T14:57:10.349Z,98959.81
2023-04-18T14:59:38.457Z,98948.66
2023-04-18T15:02:06.518Z,98957.28
2023-04-18T15:04:34.692Z,98951.81
2023-04-18T15:07:02.758Z,98948.56
2023-04-18T15:09:30.889Z,98942.50
2023-04-18T15:12:00.244Z,98947.28
2023-04-18T15:14:28.124Z,98943.78
2023-04-18T15:16:56.188Z,98940.53
2023-04-18T15:19:24.170Z,98936.56
2023-04-18T15:21:52.737Z,98937.00
2023-04-18T15:24:20.681Z,98941.63
2023-04-18T15:26:48.706Z,98937.94
2023-04-18T15:29:18.025Z,98942.91
2023-04-18T15:31:46.884Z,98942.59
2023-04-18T15:34:14.997Z,98942.00
2023-04-18T15:36:43.161Z,98924.66
2023-04-18T15:39:11.136Z,98941.59
2023-04-18T15:41:39.257Z,98929.78
2023-04-18T15:44:08.159Z,98934.28
2023-04-18T15:46:37.691Z,98938.53
2023-04-18T15:49:05.693Z,98927.53
2023-04-18T15:51:33.618Z,98926.84
2023-04-18T15:54:01.585Z,98939.03
2023-04-18T15:56:32.502Z,98938.16
2023-04-18T15:59:03.119Z,98926.72
2023-04-18T16:01:31.127Z,98927.47
2023-04-18T16:04:00.620Z,98936.88
2023-04-18T16:06:28.633Z,98935.75
2023-04-18T16:08:56.719Z,98936.34
2023-04-18T16:11:26.314Z,98939.34
2023-04-18T16:13:55.660Z,98928.38
2023-04-18T16:16:23.720Z,98931.72
2023-04-18T16:18:51.691Z,98939.28
2023-04-18T16:21:21.024Z,98937.00
2023-04-18T16:23:49.607Z,98930.16
2023-04-18T16:26:17.578Z,98936.34
2023-04-18T16:28:45.541Z,98942.25
2023-04-18T16:31:15.760Z,98944.66
2023-04-18T16:33:45.152Z,98947.91
2023-04-18T16:36:13.265Z,98946.94
2023-04-18T16:38:42.553Z,98939.78
2023-04-18T16:41:10.925Z,98951.38
2023-04-18T16:43:38.792Z,98949.16
2023-04-18T16:46:06.924Z,98944.88
2023-04-18T16:48:37.753Z,98943.84
2023-04-18T16:51:06.730Z,98945.66
2023-04-18T16:53:34.627Z,98950.56
2023-04-18T16:56:03.968Z,98943.94
2023-04-18T16:58:31.781Z,98947.34
2023-04-18T17:00:59.839Z,98947.16
2023-04-18T17:03:27.932Z,98946.56
2023-04-18T17:05:56.037Z,98942.94
2023-04-18T17:08:25.836Z,98943.34
2023-04-18T17:10:53.812Z,98943.06
2023-04-18T17:13:26.890Z,98946.88
2023-04-18T17:15:54.962Z,98942.75
2023-04-18T17:18:23.020Z,98943.75
2023-04-18T17:20:51.128Z,98941.81
2023-04-18T17:23:19.096Z,98942.09
2023-04-18T17:25:47.666Z,98913.78
2023-04-18T17:28:15.609Z,98945.63
2023-04-18T17:30:45.070Z,98923.34
2023-04-18T17:33:12.999Z,98943.78
2023-04-18T17:35:42.150Z,98950.25
2023-04-18T17:38:10.596Z,98943.63
2023-04-18T17:40:39.502Z,98944.63
2023-04-18T17:43:07.451Z,98943.47
2023-04-18T17:45:35.577Z,98949.47
2023-04-18T17:48:05.244Z,98943.19
2023-04-18T17:50:36.935Z,98948.66
2023-04-18T17:53:05.071Z,98946.38
2023-04-18T17:55:33.032Z,98954.91
2023-04-18T17:58:00.932Z,98963.47
2023-04-18T18:00:29.065Z,98955.59
2023-04-18T18:02:57.280Z,98961.50
2023-04-18T18:05:26.741Z,98967.41
2023-04-18T18:07:56.243Z,98960.50
2023-04-18T18:10:25.034Z,98961.22
2023-04-18T18:12:52.949Z,98968.81
2023-04-18T18:15:21.135Z,98967.16
2023-04-18T18:17:49.965Z,98969.84
2023-04-18T18:20:18.305Z,98953.75
2023-04-18T18:22:47.676Z,98979.06
2023-04-18T18:25:15.644Z,98976.19
2023-04-18T18:27:43.570Z,98981.41
2023-04-18T18:30:11.862Z,98972.34
2023-04-18T18:32:39.823Z,98978.03
2023-04-18T18:35:08.313Z,98989.06
2023-04-18T18:37:36.210Z,98992.56
2023-04-18T18:40:07.447Z,98996.06
2023-04-18T18:42:35.337Z,99000.78
2023-04-18T18:45:03.978Z,99006.81
2023-04-18T18:47:32.014Z,99007.41
2023-04-18T18:49:59.931Z,98995.03
2023-04-18T18:52:29.857Z,99005.03
2023-04-18T18:54:57.999Z,99012.91
2023-04-18T18:57:27.343Z,99014.03
2023-04-18T18:59:55.922Z,99013.47
2023-04-18T19:02:24.294Z,99021.88
2023-04-18T19:04:52.553Z,99025.91
2023-04-18T19:07:20.723Z,99038.66
2023-04-18T19:09:49.486Z,99029.16
2023-04-18T19:12:17.421Z,99028.84
2023-04-18T19:14:46.951Z,99038.09
2023-04-18T19:17:17.680Z,99034.19
2023-04-18T19:19:45.590Z,99037.31
2023-04-18T19:22:13.505Z,99045.81
2023-04-18T19:24:41.434Z,99047.63
2023-04-18T19:27:09.434Z,99050.72
2023-04-18T19:29:37.505Z,99052.09
2023-04-18T19:32:07.579Z,99058.69
2023-04-18T19:34:35.490Z,99063.16
2023-04-18T19:37:03.752Z,99068.72
2023-04-18T19:39:31.681Z,99064.50
2023-04-18T19:41:59.665Z,99068.34
2023-04-18T19:44:27.546Z,99060.06
2023-04-18T19:46:55.496Z,99072.78
2023-04-18T19:49:24.732Z,99064.28
2023-04-18T19:51:53.000Z,99068.34
2023-04-18T19:54:22.129Z,99057.66
2023-04-18T19:56:50.164Z,99068.81
2023-04-18T19:59:18.193Z,99075.75
2023-04-18T20:01:46.196Z,99072.38
2023-04-18T20:04:14.293Z,99074.94
2023-04-18T20:06:43.690Z,99076.69
2023-04-18T20:09:16.854Z,99089.53
2023-04-18T20:11:45.003Z,99079.13
2023-04-18T20:14:13.012Z,99079.34
2023-04-18T20:16:42.788Z,99074.28
2023-04-18T20:19:12.609Z,99084.19
2023-04-18T20:21:41.205Z,99084.84
2023-04-18T20:24:10.771Z,99087.19
2023-04-18T20:26:38.747Z,99085.47
2023-04-18T20:29:06.642Z,99100.66
2023-04-18T20:31:35.100Z,99090.06
2023-04-18T20:34:02.970Z,99093.00
2023-04-18T20:36:31.148Z,99094.72
2023-04-18T20:39:02.386Z,99098.94
2023-04-18T20:41:32.626Z,99086.44
2023-04-18T20:44:05.212Z,99101.59
2023-04-18T20:46:33.417Z,99090.75
2023-04-18T20:49:01.338Z,99100.25
2023-04-18T20:51:29.894Z,99105.00
2023-04-18T20:53:57.808Z,99100.19
2023-04-18T20:56:25.818Z,99107.00
2023-04-18T20:58:55.089Z,99104.50
2023-04-18T21:01:23.271Z,99101.63
2023-04-18T21:03:51.327Z,99101.13
2023-04-18T21:06:22.116Z,99107.56
2023-04-18T21:08:50.758Z,99094.88
2023-04-18T21:11:18.667Z,99109.44
2023-04-18T21:13:46.625Z,99107.16
2023-04-18T21:16:16.034Z,99107.50
2023-04-18T21:18:44.036Z,99111.47
2023-04-18T21:21:12.006Z,99107.91
2023-04-18T21:23:43.812Z,99096.00
2023-04-18T21:26:13.645Z,99103.38
2023-04-18T21:29:04.709Z,99107.91
2023-04-18T21:31:35.115Z,99110.38
2023-04-18T21:34:04.783Z,99092.41
2023-04-18T21:36:33.667Z,99099.78
2023-04-18T21:39:02.281Z,99111.69
2023-04-18T21:41:30.228Z,99104.56
2023-04-18T21:43:58.153Z,99107.88
2023-04-18T21:46:26.436Z,99098.03
2023-04-18T21:48:55.917Z,99116.13
2023-04-18T21:51:23.855Z,99106.66
2023-04-18T21:53:51.817Z,99109.53
2023-04-18T21:56:19.736Z,99117.28
2023-04-18T21:58:47.719Z,99101.56
2023-04-18T22:01:15.898Z,99108.69
2023-04-18T22:03:44.174Z,99104.22
2023-04-18T22:06:13.567Z,99105.91
2023-04-18T22:08:42.347Z,99104.88
2023-04-18T22:11:11.997Z,99107.38
2023-04-18T22:13:40.609Z,99095.75
2023-04-18T22:16:10.657Z,99092.66
2023-04-18T22:18:39.322Z,99105.31
2023-04-18T22:21:09.726Z,99103.72
2023-04-18T22:23:39.829Z,99109.00
2023-04-18T22:26:08.369Z,99112.03
2023-04-18T22:28:37.417Z,99118.13
2023-04-18T22:31:06.420Z,99106.53
2023-04-18T22:33:34.331Z,99117.56
2023-04-18T22:36:02.267Z,99121.22
2023-04-18T22:38:30.292Z,99108.63
2023-04-18T22:41:00.117Z,99102.41
2023-04-18T22:43:28.331Z,99110.84
2023-04-18T22:45:56.292Z,99106.13
2023-04-18T22:48:24.179Z,99117.69
2023-04-18T22:50:52.107Z,99122.28
2023-04-18T22:53:19.970Z,99119.19
2023-04-18T22:55:47.858Z,99127.72
2023-04-18T22:58:17.140Z,99119.25
2023-04-18T23:00:45.065Z,99118.75
2023-04-18T23:03:13.113Z,99113.63
2023-04-18T23:05:41.575Z,99109.78
2023-04-18T23:08:09.500Z,99114.56
2023-04-18T23:10:37.447Z,99122.59
2023-04-18T23:13:05.349Z,99125.34
2023-04-18T23:15:34.704Z,99128.94
2023-04-18T23:18:02.713Z,99120.25
2023-04-18T23:20:30.676Z,99129.00
2023-04-18T23:22:58.568Z,99130.94
2023-04-18T23:25:26.527Z,99126.38
2023-04-18T23:27:54.417Z,99120.47
2023-04-18T23:30:22.310Z,99131.44
2023-04-18T23:32:51.589Z,99122.91
2023-04-18T23:35:19.648Z,99119.19
2023-04-18T23:37:47.535Z,99125.75
2023-04-18T23:40:15.677Z,99130.69
2023-04-18T23:42:43.929Z,99134.31
2023-04-18T23:45:12.636Z,99137.47
2023-04-18T23:47:40.837Z,99132.06
2023-04-18T23:50:11.259Z,99139.38
2023-04-18T23:52:39.257Z,99132.88
2023-04-18T23:55:07.986Z,99132.34
2023-04-18T23:57:35.937Z,99130.44
